sensor_id;sensor_type;location;lat;lon;timestamp;P1;durP1;ratioP1;P2;durP2;ratioP2
5787;SDS011;2920;48.158;12.254;2023-06-22T00:01:00;7.75;;;3.40;;
5787;SDS011;2920;48.158;12.254;2023-06-22T00:03:25;6.50;;;2.83;;
5787;SDS011;2920;48.158;12.254;2023-06-22T00:05:51;6.15;;;2.83;;
5787;SDS011;2920;48.158;12.254;2023-06-22T00:08:17;6.50;;;3.03;;
5787;SDS011;2920;48.158;12.254;2023-06-22T00:10:43;4.70;;;3.22;;
5787;SDS011;2920;48.158;12.254;2023-06-22T00:13:09;5.60;;;2.55;;
5787;SDS011;2920;48.158;12.254;2023-06-22T00:15:35;7.32;;;2.95;;
5787;SDS011;2920;48.158;12.254;2023-06-22T00:18:02;6.38;;;2.80;;
5787;SDS011;2920;48.158;12.254;2023-06-22T00:20:27;8.75;;;3.08;;
5787;SDS011;2920;48.158;12.254;2023-06-22T00:22:54;7.57;;;3.30;;
5787;SDS011;2920;48.158;12.254;2023-06-22T00:25:19;9.57;;;3.35;;
5787;SDS011;2920;48.158;12.254;2023-06-22T00:27:45;7.53;;;3.30;;
5787;SDS011;2920;48.158;12.254;2023-06-22T00:30:11;6.22;;;3.15;;
5787;SDS011;2920;48.158;12.254;2023-06-22T00:32:36;10.18;;;3.67;;
5787;SDS011;2920;48.158;12.254;2023-06-22T00:35:01;8.00;;;3.65;;
5787;SDS011;2920;48.158;12.254;2023-06-22T00:37:27;5.50;;;3.30;;
5787;SDS011;2920;48.158;12.254;2023-06-22T00:39:54;5.45;;;3.42;;
5787;SDS011;2920;48.158;12.254;2023-06-22T00:42:20;7.82;;;3.45;;
5787;SDS011;2920;48.158;12.254;2023-06-22T00:44:45;11.55;;;4.28;;
5787;SDS011;2920;48.158;12.254;2023-06-22T00:47:14;9.77;;;4.75;;
5787;SDS011;2920;48.158;12.254;2023-06-22T00:49:41;11.57;;;4.30;;
5787;SDS011;2920;48.158;12.254;2023-06-22T00:52:07;7.75;;;4.32;;
5787;SDS011;2920;48.158;12.254;2023-06-22T00:54:34;12.70;;;3.72;;
5787;SDS011;2920;48.158;12.254;2023-06-22T00:57:01;10.13;;;4.03;;
5787;SDS011;2920;48.158;12.254;2023-06-22T00:59:26;9.85;;;4.20;;
5787;SDS011;2920;48.158;12.254;2023-06-22T01:01:52;8.07;;;4.13;;
5787;SDS011;2920;48.158;12.254;2023-06-22T01:04:17;8.15;;;4.25;;
5787;SDS011;2920;48.158;12.254;2023-06-22T01:07:00;6.93;;;3.70;;
5787;SDS011;2920;48.158;12.254;2023-06-22T01:09:31;7.82;;;3.67;;
5787;SDS011;2920;48.158;12.254;2023-06-22T01:12:00;14.27;;;4.40;;
5787;SDS011;2920;48.158;12.254;2023-06-22T01:14:28;6.63;;;4.00;;
5787;SDS011;2920;48.158;12.254;2023-06-22T01:17:03;7.38;;;3.42;;
5787;SDS011;2920;48.158;12.254;2023-06-22T01:22:09;10.65;;;3.75;;
5787;SDS011;2920;48.158;12.254;2023-06-22T01:27:23;7.85;;;3.67;;
5787;SDS011;2920;48.158;12.254;2023-06-22T01:29:57;6.18;;;3.65;;
5787;SDS011;2920;48.158;12.254;2023-06-22T01:32:27;5.78;;;3.58;;
5787;SDS011;2920;48.158;12.254;2023-06-22T01:34:54;8.15;;;4.28;;
5787;SDS011;2920;48.158;12.254;2023-06-22T01:37:21;8.75;;;3.20;;
5787;SDS011;2920;48.158;12.254;2023-06-22T01:39:46;5.97;;;3.13;;
5787;SDS011;2920;48.158;12.254;2023-06-22T01:42:12;9.32;;;3.47;;
5787;SDS011;2920;48.158;12.254;2023-06-22T01:44:37;9.55;;;3.75;;
5787;SDS011;2920;48.158;12.254;2023-06-22T01:47:03;5.72;;;3.40;;
5787;SDS011;2920;48.158;12.254;2023-06-22T01:49:28;8.02;;;3.40;;
5787;SDS011;2920;48.158;12.254;2023-06-22T01:51:54;10.95;;;3.85;;
5787;SDS011;2920;48.158;12.254;2023-06-22T01:54:19;7.18;;;4.05;;
5787;SDS011;2920;48.158;12.254;2023-06-22T01:56:45;7.28;;;3.38;;
5787;SDS011;2920;48.158;12.254;2023-06-22T02:01:50;9.05;;;3.95;;
5787;SDS011;2920;48.158;12.254;2023-06-22T02:04:21;8.05;;;3.42;;
5787;SDS011;2920;48.158;12.254;2023-06-22T02:06:49;7.20;;;3.60;;
5787;SDS011;2920;48.158;12.254;2023-06-22T02:09:17;9.25;;;3.15;;
5787;SDS011;2920;48.158;12.254;2023-06-22T02:11:44;8.13;;;3.67;;
5787;SDS011;2920;48.158;12.254;2023-06-22T02:14:10;8.35;;;3.70;;
5787;SDS011;2920;48.158;12.254;2023-06-22T02:16:37;9.20;;;3.63;;
5787;SDS011;2920;48.158;12.254;2023-06-22T02:19:02;5.63;;;3.10;;
5787;SDS011;2920;48.158;12.254;2023-06-22T02:21:28;7.20;;;3.58;;
5787;SDS011;2920;48.158;12.254;2023-06-22T02:23:54;9.90;;;3.00;;
5787;SDS011;2920;48.158;12.254;2023-06-22T02:26:19;12.70;;;4.82;;
5787;SDS011;2920;48.158;12.254;2023-06-22T02:28:44;11.82;;;3.75;;
5787;SDS011;2920;48.158;12.254;2023-06-22T02:31:10;8.10;;;3.42;;
5787;SDS011;2920;48.158;12.254;2023-06-22T02:33:36;8.30;;;4.22;;
5787;SDS011;2920;48.158;12.254;2023-06-22T02:36:01;10.57;;;3.50;;
5787;SDS011;2920;48.158;12.254;2023-06-22T02:38:30;9.00;;;4.70;;
5787;SDS011;2920;48.158;12.254;2023-06-22T02:40:59;6.95;;;3.58;;
5787;SDS011;2920;48.158;12.254;2023-06-22T02:43:24;8.02;;;3.95;;
5787;SDS011;2920;48.158;12.254;2023-06-22T02:45:49;8.23;;;3.95;;
5787;SDS011;2920;48.158;12.254;2023-06-22T02:48:15;7.18;;;3.92;;
5787;SDS011;2920;48.158;12.254;2023-06-22T02:50:40;12.40;;;4.32;;
5787;SDS011;2920;48.158;12.254;2023-06-22T02:53:05;6.18;;;4.15;;
5787;SDS011;2920;48.158;12.254;2023-06-22T02:55:31;10.35;;;4.28;;
5787;SDS011;2920;48.158;12.254;2023-06-22T02:57:56;8.23;;;4.30;;
5787;SDS011;2920;48.158;12.254;2023-06-22T03:00:22;13.70;;;4.85;;
5787;SDS011;2920;48.158;12.254;2023-06-22T03:02:48;7.25;;;4.47;;
5787;SDS011;2920;48.158;12.254;2023-06-22T03:05:15;8.63;;;3.90;;
5787;SDS011;2920;48.158;12.254;2023-06-22T03:07:46;10.45;;;4.70;;
5787;SDS011;2920;48.158;12.254;2023-06-22T03:10:12;7.25;;;4.90;;
5787;SDS011;2920;48.158;12.254;2023-06-22T03:12:38;10.35;;;4.53;;
5787;SDS011;2920;48.158;12.254;2023-06-22T03:15:05;6.78;;;3.50;;
5787;SDS011;2920;48.158;12.254;2023-06-22T03:17:31;10.02;;;3.72;;
5787;SDS011;2920;48.158;12.254;2023-06-22T03:19:56;9.50;;;5.00;;
5787;SDS011;2920;48.158;12.254;2023-06-22T03:22:21;12.07;;;5.63;;
5787;SDS011;2920;48.158;12.254;2023-06-22T03:24:46;12.80;;;5.45;;
5787;SDS011;2920;48.158;12.254;2023-06-22T03:27:12;7.45;;;4.32;;
5787;SDS011;2920;48.158;12.254;2023-06-22T03:29:38;7.80;;;4.32;;
5787;SDS011;2920;48.158;12.254;2023-06-22T03:32:03;11.15;;;4.70;;
5787;SDS011;2920;48.158;12.254;2023-06-22T03:34:30;9.80;;;4.13;;
5787;SDS011;2920;48.158;12.254;2023-06-22T03:36:58;5.75;;;3.50;;
5787;SDS011;2920;48.158;12.254;2023-06-22T03:39:23;11.20;;;4.47;;
5787;SDS011;2920;48.158;12.254;2023-06-22T03:41:49;8.55;;;4.38;;
5787;SDS011;2920;48.158;12.254;2023-06-22T03:44:14;9.30;;;4.28;;
5787;SDS011;2920;48.158;12.254;2023-06-22T03:46:39;9.73;;;4.22;;
5787;SDS011;2920;48.158;12.254;2023-06-22T03:49:05;10.07;;;3.78;;
5787;SDS011;2920;48.158;12.254;2023-06-22T03:51:30;17.20;;;5.00;;
5787;SDS011;2920;48.158;12.254;2023-06-22T03:53:56;7.25;;;4.05;;
5787;SDS011;2920;48.158;12.254;2023-06-22T03:56:21;11.55;;;4.00;;
5787;SDS011;2920;48.158;12.254;2023-06-22T03:58:46;7.93;;;3.88;;
5787;SDS011;2920;48.158;12.254;2023-06-22T04:01:12;17.70;;;4.90;;
5787;SDS011;2920;48.158;12.254;2023-06-22T04:03:37;10.82;;;4.43;;
5787;SDS011;2920;48.158;12.254;2023-06-22T04:06:03;8.10;;;4.40;;
5787;SDS011;2920;48.158;12.254;2023-06-22T04:08:29;8.00;;;4.50;;
5787;SDS011;2920;48.158;12.254;2023-06-22T04:10:54;9.52;;;4.70;;
5787;SDS011;2920;48.158;12.254;2023-06-22T04:13:20;11.05;;;4.88;;
5787;SDS011;2920;48.158;12.254;2023-06-22T04:15:45;11.77;;;4.20;;
5787;SDS011;2920;48.158;12.254;2023-06-22T04:18:10;11.68;;;4.90;;
5787;SDS011;2920;48.158;12.254;2023-06-22T04:20:35;12.25;;;5.13;;
5787;SDS011;2920;48.158;12.254;2023-06-22T04:23:01;7.63;;;4.80;;
5787;SDS011;2920;48.158;12.254;2023-06-22T04:25:26;8.88;;;4.68;;
5787;SDS011;2920;48.158;12.254;2023-06-22T04:27:52;12.20;;;4.53;;
5787;SDS011;2920;48.158;12.254;2023-06-22T04:30:17;8.57;;;4.43;;
5787;SDS011;2920;48.158;12.254;2023-06-22T04:32:43;7.95;;;4.65;;
5787;SDS011;2920;48.158;12.254;2023-06-22T04:35:09;9.40;;;4.95;;
5787;SDS011;2920;48.158;12.254;2023-06-22T04:37:35;9.82;;;4.45;;
5787;SDS011;2920;48.158;12.254;2023-06-22T04:40:00;7.22;;;4.75;;
5787;SDS011;2920;48.158;12.254;2023-06-22T04:42:26;7.47;;;4.20;;
5787;SDS011;2920;48.158;12.254;2023-06-22T04:44:51;11.05;;;4.35;;
5787;SDS011;2920;48.158;12.254;2023-06-22T04:47:16;10.43;;;4.68;;
5787;SDS011;2920;48.158;12.254;2023-06-22T04:49:42;9.23;;;4.43;;
5787;SDS011;2920;48.158;12.254;2023-06-22T04:52:08;9.00;;;4.60;;
5787;SDS011;2920;48.158;12.254;2023-06-22T04:54:35;11.23;;;4.75;;
5787;SDS011;2920;48.158;12.254;2023-06-22T04:57:02;8.68;;;4.70;;
5787;SDS011;2920;48.158;12.254;2023-06-22T04:59:28;9.75;;;4.32;;
5787;SDS011;2920;48.158;12.254;2023-06-22T05:01:59;9.32;;;4.65;;
5787;SDS011;2920;48.158;12.254;2023-06-22T05:04:25;6.18;;;3.67;;
5787;SDS011;2920;48.158;12.254;2023-06-22T05:06:52;8.35;;;4.05;;
5787;SDS011;2920;48.158;12.254;2023-06-22T05:09:18;8.55;;;3.92;;
5787;SDS011;2920;48.158;12.254;2023-06-22T05:11:44;13.20;;;4.13;;
5787;SDS011;2920;48.158;12.254;2023-06-22T05:14:10;8.95;;;4.53;;
5787;SDS011;2920;48.158;12.254;2023-06-22T05:16:36;11.25;;;4.45;;
5787;SDS011;2920;48.158;12.254;2023-06-22T05:19:01;9.20;;;5.13;;
5787;SDS011;2920;48.158;12.254;2023-06-22T05:21:28;9.05;;;4.20;;
5787;SDS011;2920;48.158;12.254;2023-06-22T05:23:54;11.20;;;4.57;;
5787;SDS011;2920;48.158;12.254;2023-06-22T05:26:20;13.05;;;5.68;;
5787;SDS011;2920;48.158;12.254;2023-06-22T05:28:46;6.68;;;3.70;;
5787;SDS011;2920;48.158;12.254;2023-06-22T05:31:12;7.65;;;3.58;;
5787;SDS011;2920;48.158;12.254;2023-06-22T05:33:38;11.90;;;4.07;;
5787;SDS011;2920;48.158;12.254;2023-06-22T05:36:04;10.35;;;4.10;;
5787;SDS011;2920;48.158;12.254;2023-06-22T05:38:30;10.85;;;4.28;;
5787;SDS011;2920;48.158;12.254;2023-06-22T05:40:56;11.20;;;3.95;;
5787;SDS011;2920;48.158;12.254;2023-06-22T05:43:21;10.70;;;3.80;;
5787;SDS011;2920;48.158;12.254;2023-06-22T05:45:46;12.20;;;3.97;;
5787;SDS011;2920;48.158;12.254;2023-06-22T05:48:11;6.97;;;3.55;;
5787;SDS011;2920;48.158;12.254;2023-06-22T05:50:37;11.07;;;3.63;;
5787;SDS011;2920;48.158;12.254;2023-06-22T05:53:02;11.88;;;4.00;;
5787;SDS011;2920;48.158;12.254;2023-06-22T05:55:28;5.95;;;3.40;;
5787;SDS011;2920;48.158;12.254;2023-06-22T05:57:53;9.02;;;3.83;;
5787;SDS011;2920;48.158;12.254;2023-06-22T06:00:18;12.27;;;4.57;;
5787;SDS011;2920;48.158;12.254;2023-06-22T06:02:44;6.38;;;3.60;;
5787;SDS011;2920;48.158;12.254;2023-06-22T06:05:12;12.68;;;4.10;;
5787;SDS011;2920;48.158;12.254;2023-06-22T06:07:44;13.75;;;4.57;;
5787;SDS011;2920;48.158;12.254;2023-06-22T06:10:11;7.47;;;4.10;;
5787;SDS011;2920;48.158;12.254;2023-06-22T06:12:37;10.05;;;4.55;;
5787;SDS011;2920;48.158;12.254;2023-06-22T06:15:03;8.32;;;3.97;;
5787;SDS011;2920;48.158;12.254;2023-06-22T06:17:28;9.70;;;4.13;;
5787;SDS011;2920;48.158;12.254;2023-06-22T06:19:54;10.38;;;4.22;;
5787;SDS011;2920;48.158;12.254;2023-06-22T06:22:19;8.15;;;3.88;;
5787;SDS011;2920;48.158;12.254;2023-06-22T06:24:46;7.55;;;4.05;;
5787;SDS011;2920;48.158;12.254;2023-06-22T06:27:12;7.20;;;3.67;;
5787;SDS011;2920;48.158;12.254;2023-06-22T06:29:38;11.43;;;4.43;;
5787;SDS011;2920;48.158;12.254;2023-06-22T06:32:03;9.02;;;4.07;;
5787;SDS011;2920;48.158;12.254;2023-06-22T06:34:28;6.55;;;3.65;;
5787;SDS011;2920;48.158;12.254;2023-06-22T06:36:54;11.52;;;4.43;;
5787;SDS011;2920;48.158;12.254;2023-06-22T06:39:19;10.82;;;4.30;;
5787;SDS011;2920;48.158;12.254;2023-06-22T06:41:45;9.00;;;4.63;;
5787;SDS011;2920;48.158;12.254;2023-06-22T06:44:10;9.27;;;4.38;;
5787;SDS011;2920;48.158;12.254;2023-06-22T06:46:36;11.85;;;4.10;;
5787;SDS011;2920;48.158;12.254;2023-06-22T06:49:01;7.13;;;4.10;;
5787;SDS011;2920;48.158;12.254;2023-06-22T06:51:27;10.80;;;4.35;;
5787;SDS011;2920;48.158;12.254;2023-06-22T06:53:52;11.57;;;4.53;;
5787;SDS011;2920;48.158;12.254;2023-06-22T06:56:17;8.93;;;4.70;;
5787;SDS011;2920;48.158;12.254;2023-06-22T06:58:43;9.75;;;4.20;;
5787;SDS011;2920;48.158;12.254;2023-06-22T07:01:10;12.18;;;4.03;;
5787;SDS011;2920;48.158;12.254;2023-06-22T07:03:35;10.43;;;4.50;;
5787;SDS011;2920;48.158;12.254;2023-06-22T07:06:01;11.30;;;3.80;;
5787;SDS011;2920;48.158;12.254;2023-06-22T07:08:26;14.60;;;4.78;;
5787;SDS011;2920;48.158;12.254;2023-06-22T07:10:52;7.50;;;4.50;;
5787;SDS011;2920;48.158;12.254;2023-06-22T07:13:17;7.97;;;4.03;;
5787;SDS011;2920;48.158;12.254;2023-06-22T07:15:42;9.68;;;4.70;;
5787;SDS011;2920;48.158;12.254;2023-06-22T07:18:08;8.45;;;4.60;;
5787;SDS011;2920;48.158;12.254;2023-06-22T07:20:33;10.25;;;4.53;;
5787;SDS011;2920;48.158;12.254;2023-06-22T07:22:59;7.25;;;3.97;;
5787;SDS011;2920;48.158;12.254;2023-06-22T07:25:24;8.07;;;4.63;;
5787;SDS011;2920;48.158;12.254;2023-06-22T07:28:00;8.98;;;4.38;;
5787;SDS011;2920;48.158;12.254;2023-06-22T07:30:30;7.10;;;4.05;;
5787;SDS011;2920;48.158;12.254;2023-06-22T07:32:56;8.68;;;5.07;;
5787;SDS011;2920;48.158;12.254;2023-06-22T07:35:21;8.63;;;4.10;;
5787;SDS011;2920;48.158;12.254;2023-06-22T07:37:47;9.00;;;4.80;;
5787;SDS011;2920;48.158;12.254;2023-06-22T07:40:12;8.40;;;4.15;;
5787;SDS011;2920;48.158;12.254;2023-06-22T07:42:38;9.38;;;4.75;;
5787;SDS011;2920;48.158;12.254;2023-06-22T07:45:03;7.40;;;3.92;;
5787;SDS011;2920;48.158;12.254;2023-06-22T07:47:29;7.07;;;3.95;;
5787;SDS011;2920;48.158;12.254;2023-06-22T07:49:55;13.00;;;4.97;;
5787;SDS011;2920;48.158;12.254;2023-06-22T07:52:23;6.75;;;4.05;;
5787;SDS011;2920;48.158;12.254;2023-06-22T07:54:50;8.50;;;4.57;;
5787;SDS011;2920;48.158;12.254;2023-06-22T07:57:15;9.52;;;4.47;;
5787;SDS011;2920;48.158;12.254;2023-06-22T07:59:41;12.50;;;4.85;;
5787;SDS011;2920;48.158;12.254;2023-06-22T08:02:06;14.30;;;5.32;;
5787;SDS011;2920;48.158;12.254;2023-06-22T08:04:33;11.15;;;4.60;;
5787;SDS011;2920;48.158;12.254;2023-06-22T08:06:59;6.38;;;4.22;;
5787;SDS011;2920;48.158;12.254;2023-06-22T08:09:25;15.13;;;6.68;;
5787;SDS011;2920;48.158;12.254;2023-06-22T08:11:50;13.13;;;5.68;;
5787;SDS011;2920;48.158;12.254;2023-06-22T08:14:15;9.30;;;5.00;;
5787;SDS011;2920;48.158;12.254;2023-06-22T08:16:41;16.45;;;5.18;;
5787;SDS011;2920;48.158;12.254;2023-06-22T08:19:07;9.85;;;5.55;;
5787;SDS011;2920;48.158;12.254;2023-06-22T08:21:32;13.80;;;5.28;;
5787;SDS011;2920;48.158;12.254;2023-06-22T08:23:58;11.40;;;5.18;;
5787;SDS011;2920;48.158;12.254;2023-06-22T08:26:23;11.80;;;4.90;;
5787;SDS011;2920;48.158;12.254;2023-06-22T08:28:48;9.45;;;4.78;;
5787;SDS011;2920;48.158;12.254;2023-06-22T08:31:14;10.65;;;4.72;;
5787;SDS011;2920;48.158;12.254;2023-06-22T08:33:39;22.25;;;6.10;;
5787;SDS011;2920;48.158;12.254;2023-06-22T08:36:05;11.02;;;5.10;;
5787;SDS011;2920;48.158;12.254;2023-06-22T08:38:31;9.65;;;5.30;;
5787;SDS011;2920;48.158;12.254;2023-06-22T08:40:56;11.70;;;5.25;;
5787;SDS011;2920;48.158;12.254;2023-06-22T08:43:22;14.40;;;5.57;;
5787;SDS011;2920;48.158;12.254;2023-06-22T08:45:47;7.43;;;5.00;;
5787;SDS011;2920;48.158;12.254;2023-06-22T08:48:12;8.65;;;4.78;;
5787;SDS011;2920;48.158;12.254;2023-06-22T08:50:38;10.13;;;4.57;;
5787;SDS011;2920;48.158;12.254;2023-06-22T08:53:05;11.48;;;4.65;;
5787;SDS011;2920;48.158;12.254;2023-06-22T08:55:31;9.93;;;5.15;;
5787;SDS011;2920;48.158;12.254;2023-06-22T08:57:56;12.20;;;5.03;;
5787;SDS011;2920;48.158;12.254;2023-06-22T09:00:21;8.20;;;4.40;;
5787;SDS011;2920;48.158;12.254;2023-06-22T09:02:47;8.88;;;4.88;;
5787;SDS011;2920;48.158;12.254;2023-06-22T09:05:12;9.27;;;5.30;;
5787;SDS011;2920;48.158;12.254;2023-06-22T09:07:38;8.77;;;4.75;;
5787;SDS011;2920;48.158;12.254;2023-06-22T09:10:03;9.10;;;4.43;;
5787;SDS011;2920;48.158;12.254;2023-06-22T09:12:30;7.22;;;4.72;;
5787;SDS011;2920;48.158;12.254;2023-06-22T09:14:55;13.52;;;5.10;;
5787;SDS011;2920;48.158;12.254;2023-06-22T09:17:21;9.23;;;4.63;;
5787;SDS011;2920;48.158;12.254;2023-06-22T09:19:47;16.10;;;5.93;;
5787;SDS011;2920;48.158;12.254;2023-06-22T09:22:13;14.00;;;4.47;;
5787;SDS011;2920;48.158;12.254;2023-06-22T09:24:39;13.82;;;5.13;;
5787;SDS011;2920;48.158;12.254;2023-06-22T09:27:04;8.10;;;4.90;;
5787;SDS011;2920;48.158;12.254;2023-06-22T09:29:30;10.07;;;4.68;;
5787;SDS011;2920;48.158;12.254;2023-06-22T09:31:58;9.75;;;4.75;;
5787;SDS011;2920;48.158;12.254;2023-06-22T09:34:23;9.13;;;4.85;;
5787;SDS011;2920;48.158;12.254;2023-06-22T09:36:49;9.73;;;5.28;;
5787;SDS011;2920;48.158;12.254;2023-06-22T09:39:14;7.95;;;4.70;;
5787;SDS011;2920;48.158;12.254;2023-06-22T09:41:40;9.27;;;4.63;;
5787;SDS011;2920;48.158;12.254;2023-06-22T09:44:06;11.60;;;5.03;;
5787;SDS011;2920;48.158;12.254;2023-06-22T09:46:31;9.13;;;5.28;;
5787;SDS011;2920;48.158;12.254;2023-06-22T09:48:56;8.88;;;5.13;;
5787;SDS011;2920;48.158;12.254;2023-06-22T09:51:22;10.77;;;5.63;;
5787;SDS011;2920;48.158;12.254;2023-06-22T09:53:48;11.10;;;5.28;;
5787;SDS011;2920;48.158;12.254;2023-06-22T09:56:14;13.60;;;4.85;;
5787;SDS011;2920;48.158;12.254;2023-06-22T09:58:41;10.75;;;4.75;;
5787;SDS011;2920;48.158;12.254;2023-06-22T10:01:07;12.90;;;5.18;;
5787;SDS011;2920;48.158;12.254;2023-06-22T10:03:32;10.50;;;4.70;;
5787;SDS011;2920;48.158;12.254;2023-06-22T10:05:58;9.77;;;5.37;;
5787;SDS011;2920;48.158;12.254;2023-06-22T10:08:23;9.88;;;5.47;;
5787;SDS011;2920;48.158;12.254;2023-06-22T10:10:48;10.85;;;4.57;;
5787;SDS011;2920;48.158;12.254;2023-06-22T10:13:14;10.60;;;4.85;;
5787;SDS011;2920;48.158;12.254;2023-06-22T10:15:40;11.45;;;4.72;;
5787;SDS011;2920;48.158;12.254;2023-06-22T10:18:07;11.60;;;4.57;;
5787;SDS011;2920;48.158;12.254;2023-06-22T10:20:32;12.13;;;5.23;;
5787;SDS011;2920;48.158;12.254;2023-06-22T10:22:58;8.18;;;4.35;;
5787;SDS011;2920;48.158;12.254;2023-06-22T10:25:23;8.90;;;4.97;;
5787;SDS011;2920;48.158;12.254;2023-06-22T10:27:49;8.68;;;4.85;;
5787;SDS011;2920;48.158;12.254;2023-06-22T10:30:14;7.40;;;4.55;;
5787;SDS011;2920;48.158;12.254;2023-06-22T10:32:40;13.38;;;5.47;;
5787;SDS011;2920;48.158;12.254;2023-06-22T10:35:06;8.18;;;4.82;;
5787;SDS011;2920;48.158;12.254;2023-06-22T10:37:32;8.75;;;5.07;;
5787;SDS011;2920;48.158;12.254;2023-06-22T10:39:57;11.00;;;5.10;;
5787;SDS011;2920;48.158;12.254;2023-06-22T10:42:22;26.17;;;5.60;;
5787;SDS011;2920;48.158;12.254;2023-06-22T10:44:48;7.60;;;4.70;;
5787;SDS011;2920;48.158;12.254;2023-06-22T10:47:13;12.43;;;5.07;;
5787;SDS011;2920;48.158;12.254;2023-06-22T10:49:39;8.48;;;5.10;;
5787;SDS011;2920;48.158;12.254;2023-06-22T10:52:05;14.20;;;5.15;;
5787;SDS011;2920;48.158;12.254;2023-06-22T10:54:32;9.30;;;5.15;;
5787;SDS011;2920;48.158;12.254;2023-06-22T10:56:58;12.00;;;4.60;;
5787;SDS011;2920;48.158;12.254;2023-06-22T10:59:24;9.23;;;5.47;;
5787;SDS011;2920;48.158;12.254;2023-06-22T11:01:50;15.05;;;5.10;;
5787;SDS011;2920;48.158;12.254;2023-06-22T11:04:16;11.45;;;5.20;;
5787;SDS011;2920;48.158;12.254;2023-06-22T11:06:42;10.57;;;5.60;;
5787;SDS011;2920;48.158;12.254;2023-06-22T11:09:08;9.57;;;4.88;;
5787;SDS011;2920;48.158;12.254;2023-06-22T11:11:33;10.60;;;5.40;;
5787;SDS011;2920;48.158;12.254;2023-06-22T11:13:58;11.00;;;5.33;;
5787;SDS011;2920;48.158;12.254;2023-06-22T11:16:23;7.90;;;4.25;;
5787;SDS011;2920;48.158;12.254;2023-06-22T11:18:49;9.40;;;4.40;;
5787;SDS011;2920;48.158;12.254;2023-06-22T11:21:14;8.35;;;5.43;;
5787;SDS011;2920;48.158;12.254;2023-06-22T11:23:41;9.45;;;5.00;;
5787;SDS011;2920;48.158;12.254;2023-06-22T11:26:07;8.33;;;5.60;;
5787;SDS011;2920;48.158;12.254;2023-06-22T11:28:32;10.52;;;6.22;;
5787;SDS011;2920;48.158;12.254;2023-06-22T11:30:58;8.70;;;4.90;;
5787;SDS011;2920;48.158;12.254;2023-06-22T11:33:23;10.52;;;4.95;;
5787;SDS011;2920;48.158;12.254;2023-06-22T11:35:49;10.90;;;5.07;;
5787;SDS011;2920;48.158;12.254;2023-06-22T11:38:14;9.33;;;5.17;;
5787;SDS011;2920;48.158;12.254;2023-06-22T11:40:39;9.80;;;4.63;;
5787;SDS011;2920;48.158;12.254;2023-06-22T11:43:05;8.27;;;4.90;;
5787;SDS011;2920;48.158;12.254;2023-06-22T11:45:30;8.27;;;5.00;;
5787;SDS011;2920;48.158;12.254;2023-06-22T11:47:55;16.00;;;5.40;;
5787;SDS011;2920;48.158;12.254;2023-06-22T11:50:21;11.57;;;4.90;;
5787;SDS011;2920;48.158;12.254;2023-06-22T11:52:46;11.40;;;6.13;;
5787;SDS011;2920;48.158;12.254;2023-06-22T11:55:12;12.18;;;5.72;;
5787;SDS011;2920;48.158;12.254;2023-06-22T11:57:38;8.45;;;5.43;;
5787;SDS011;2920;48.158;12.254;2023-06-22T12:00:04;9.63;;;4.93;;
5787;SDS011;2920;48.158;12.254;2023-06-22T12:02:41;9.82;;;5.70;;
5787;SDS011;2920;48.158;12.254;2023-06-22T12:05:06;11.20;;;5.20;;
5787;SDS011;2920;48.158;12.254;2023-06-22T12:07:33;9.02;;;5.40;;
5787;SDS011;2920;48.158;12.254;2023-06-22T12:09:58;8.35;;;4.70;;
5787;SDS011;2920;48.158;12.254;2023-06-22T12:12:24;8.03;;;4.60;;
5787;SDS011;2920;48.158;12.254;2023-06-22T12:14:49;16.42;;;5.30;;
5787;SDS011;2920;48.158;12.254;2023-06-22T12:17:14;8.37;;;5.10;;
5787;SDS011;2920;48.158;12.254;2023-06-22T12:19:39;8.50;;;4.57;;
5787;SDS011;2920;48.158;12.254;2023-06-22T12:22:05;13.83;;;5.57;;
5787;SDS011;2920;48.158;12.254;2023-06-22T12:24:30;11.60;;;5.43;;
5787;SDS011;2920;48.158;12.254;2023-06-22T12:26:55;10.98;;;5.18;;
5787;SDS011;2920;48.158;12.254;2023-06-22T12:29:21;12.93;;;5.43;;
5787;SDS011;2920;48.158;12.254;2023-06-22T12:31:46;24.03;;;6.33;;
5787;SDS011;2920;48.158;12.254;2023-06-22T12:34:11;26.38;;;6.22;;
5787;SDS011;2920;48.158;12.254;2023-06-22T12:36:37;9.35;;;5.45;;
5787;SDS011;2920;48.158;12.254;2023-06-22T12:39:02;10.05;;;5.07;;
5787;SDS011;2920;48.158;12.254;2023-06-22T12:41:27;16.73;;;5.68;;
5787;SDS011;2920;48.158;12.254;2023-06-22T12:43:53;10.77;;;5.37;;
5787;SDS011;2920;48.158;12.254;2023-06-22T12:46:18;12.93;;;4.67;;
5787;SDS011;2920;48.158;12.254;2023-06-22T12:48:43;11.40;;;5.10;;
5787;SDS011;2920;48.158;12.254;2023-06-22T12:51:09;13.23;;;5.57;;
5787;SDS011;2920;48.158;12.254;2023-06-22T12:53:35;9.30;;;5.20;;
5787;SDS011;2920;48.158;12.254;2023-06-22T12:56:00;12.68;;;5.15;;
5787;SDS011;2920;48.158;12.254;2023-06-22T12:58:25;10.53;;;7.27;;
5787;SDS011;2920;48.158;12.254;2023-06-22T13:00:51;12.10;;;5.30;;
5787;SDS011;2920;48.158;12.254;2023-06-22T13:03:16;12.40;;;5.20;;
5787;SDS011;2920;48.158;12.254;2023-06-22T13:05:41;10.20;;;5.32;;
5787;SDS011;2920;48.158;12.254;2023-06-22T13:08:07;10.05;;;5.43;;
5787;SDS011;2920;48.158;12.254;2023-06-22T13:10:33;11.80;;;4.97;;
5787;SDS011;2920;48.158;12.254;2023-06-22T13:12:58;9.55;;;5.28;;
5787;SDS011;2920;48.158;12.254;2023-06-22T13:15:26;11.85;;;5.30;;
5787;SDS011;2920;48.158;12.254;2023-06-22T13:17:52;7.93;;;4.80;;
5787;SDS011;2920;48.158;12.254;2023-06-22T13:20:18;18.08;;;5.95;;
5787;SDS011;2920;48.158;12.254;2023-06-22T13:22:44;16.20;;;5.40;;
5787;SDS011;2920;48.158;12.254;2023-06-22T13:25:09;9.82;;;4.80;;
5787;SDS011;2920;48.158;12.254;2023-06-22T13:27:37;17.53;;;6.40;;
5787;SDS011;2920;48.158;12.254;2023-06-22T13:30:04;15.35;;;5.78;;
5787;SDS011;2920;48.158;12.254;2023-06-22T13:32:29;8.40;;;5.50;;
5787;SDS011;2920;48.158;12.254;2023-06-22T13:34:54;11.73;;;5.23;;
5787;SDS011;2920;48.158;12.254;2023-06-22T13:37:20;9.35;;;5.10;;
5787;SDS011;2920;48.158;12.254;2023-06-22T13:39:45;18.48;;;5.45;;
5787;SDS011;2920;48.158;12.254;2023-06-22T13:42:10;10.67;;;5.47;;
5787;SDS011;2920;48.158;12.254;2023-06-22T13:44:36;14.40;;;6.43;;
5787;SDS011;2920;48.158;12.254;2023-06-22T13:47:01;11.80;;;5.70;;
5787;SDS011;2920;48.158;12.254;2023-06-22T13:49:26;16.45;;;5.90;;
5787;SDS011;2920;48.158;12.254;2023-06-22T13:51:52;13.57;;;5.93;;
5787;SDS011;2920;48.158;12.254;2023-06-22T13:54:17;13.23;;;5.83;;
5787;SDS011;2920;48.158;12.254;2023-06-22T13:56:42;13.82;;;5.85;;
5787;SDS011;2920;48.158;12.254;2023-06-22T13:59:08;10.97;;;5.40;;
5787;SDS011;2920;48.158;12.254;2023-06-22T14:01:34;13.52;;;5.85;;
5787;SDS011;2920;48.158;12.254;2023-06-22T14:04:00;10.30;;;5.65;;
5787;SDS011;2920;48.158;12.254;2023-06-22T14:06:27;9.95;;;5.43;;
5787;SDS011;2920;48.158;12.254;2023-06-22T14:08:52;14.00;;;5.95;;
5787;SDS011;2920;48.158;12.254;2023-06-22T14:11:17;18.13;;;6.13;;
5787;SDS011;2920;48.158;12.254;2023-06-22T14:13:43;11.97;;;5.50;;
5787;SDS011;2920;48.158;12.254;2023-06-22T14:16:08;15.32;;;6.63;;
5787;SDS011;2920;48.158;12.254;2023-06-22T14:18:33;13.13;;;6.00;;
5787;SDS011;2920;48.158;12.254;2023-06-22T14:20:59;11.83;;;5.07;;
5787;SDS011;2920;48.158;12.254;2023-06-22T14:23:24;11.80;;;5.80;;
5787;SDS011;2920;48.158;12.254;2023-06-22T14:25:49;13.18;;;6.30;;
5787;SDS011;2920;48.158;12.254;2023-06-22T14:28:15;11.60;;;5.90;;
5787;SDS011;2920;48.158;12.254;2023-06-22T14:30:41;10.57;;;5.30;;
5787;SDS011;2920;48.158;12.254;2023-06-22T14:33:06;11.45;;;5.40;;
5787;SDS011;2920;48.158;12.254;2023-06-22T14:35:32;12.70;;;5.22;;
5787;SDS011;2920;48.158;12.254;2023-06-22T14:37:57;13.20;;;6.00;;
5787;SDS011;2920;48.158;12.254;2023-06-22T14:40:22;17.90;;;5.97;;
5787;SDS011;2920;48.158;12.254;2023-06-22T14:42:48;12.93;;;6.07;;
5787;SDS011;2920;48.158;12.254;2023-06-22T14:45:13;12.83;;;5.77;;
5787;SDS011;2920;48.158;12.254;2023-06-22T14:47:39;14.13;;;5.72;;
5787;SDS011;2920;48.158;12.254;2023-06-22T14:50:05;8.98;;;5.03;;
5787;SDS011;2920;48.158;12.254;2023-06-22T14:52:30;11.23;;;5.68;;
5787;SDS011;2920;48.158;12.254;2023-06-22T14:54:55;15.10;;;6.13;;